createdAt,value
2019-01-27T00:04:02.577Z,83.34
2019-01-27T00:06:30.773Z,83.46
2019-01-27T00:08:58.958Z,83.56
2019-01-27T00:11:27.160Z,83.66
2019-01-27T00:13:55.353Z,83.58
2019-01-27T00:16:23.552Z,83.54
2019-01-27T00:18:51.734Z,83.50
2019-01-27T00:21:19.936Z,83.43
2019-01-27T00:23:48.122Z,83.44
2019-01-27T00:26:16.318Z,83.28
2019-01-27T00:28:44.508Z,83.34
2019-01-27T00:31:12.710Z,83.35
2019-01-27T00:33:40.894Z,83.38
2019-01-27T00:36:09.089Z,83.45
2019-01-27T00:38:37.281Z,83.50
2019-01-27T00:41:05.488Z,83.57
2019-01-27T00:43:33.660Z,83.56
2019-01-27T00:46:01.858Z,83.60
2019-01-27T00:48:30.038Z,83.61
2019-01-27T00:50:58.234Z,83.57
2019-01-27T00:53:26.419Z,83.56
2019-01-27T00:55:54.616Z,83.50
2019-01-27T00:58:22.805Z,83.38
2019-01-27T01:00:51.020Z,83.44
2019-01-27T01:03:19.200Z,83.47
2019-01-27T01:05:47.378Z,83.52
2019-01-27T01:08:15.593Z,83.67
2019-01-27T01:10:43.778Z,83.68
2019-01-27T01:13:11.972Z,83.70
2019-01-27T01:15:40.159Z,83.63
2019-01-27T01:18:08.352Z,83.58
2019-01-27T01:20:36.523Z,83.68
2019-01-27T01:23:04.788Z,83.66
2019-01-27T01:25:32.973Z,83.63
2019-01-27T01:28:01.164Z,83.58
2019-01-27T01:31:09.640Z,83.58
2019-01-27T01:33:37.829Z,83.52
2019-01-27T01:36:06.017Z,83.43
2019-01-27T01:38:34.208Z,83.46
2019-01-27T01:41:02.395Z,83.58
2019-01-27T01:43:30.601Z,83.67
2019-01-27T01:45:58.786Z,83.53
2019-01-27T01:48:26.980Z,83.52
2019-01-27T01:50:55.156Z,83.55
2019-01-27T01:53:23.359Z,83.56
2019-01-27T01:59:05.734Z,83.36
2019-01-27T02:01:33.927Z,83.20
2019-01-27T02:04:02.122Z,83.23
2019-01-27T02:06:30.306Z,83.28
2019-01-27T02:08:58.506Z,83.12
2019-01-27T02:11:26.684Z,83.16
2019-01-27T02:13:54.883Z,83.06
2019-01-27T02:16:23.062Z,83.03
2019-01-27T02:18:51.265Z,82.96
2019-01-27T02:21:19.450Z,82.84
2019-01-27T02:23:47.648Z,82.80
2019-01-27T02:26:15.836Z,82.57
2019-01-27T02:28:44.037Z,82.40
2019-01-27T02:31:12.231Z,82.37
2019-01-27T02:33:40.417Z,82.38
2019-01-27T02:36:08.612Z,82.23
2019-01-27T02:38:36.801Z,82.07
2019-01-27T02:41:04.990Z,81.89
2019-01-27T02:43:33.170Z,81.89
2019-01-27T02:46:01.365Z,81.70
2019-01-27T02:48:29.547Z,81.77
2019-01-27T02:50:57.736Z,81.66
2019-01-27T02:53:25.920Z,81.62
2019-01-27T02:55:54.117Z,81.60
2019-01-27T02:58:22.288Z,81.58
2019-01-27T03:00:50.479Z,81.40
2019-01-27T03:03:18.657Z,81.15
2019-01-27T03:06:05.969Z,81.24
2019-01-27T03:11:23.022Z,81.10
2019-01-27T03:13:51.204Z,81.03
2019-01-27T03:16:19.401Z,80.83
2019-01-27T03:18:47.585Z,80.79
2019-01-27T03:21:15.770Z,80.71
2019-01-27T03:23:43.949Z,80.63
2019-01-27T03:26:12.136Z,80.69
2019-01-27T03:28:40.324Z,80.42
2019-01-27T03:31:08.514Z,80.50
2019-01-27T03:33:36.698Z,80.32
2019-01-27T03:36:04.953Z,80.28
2019-01-27T03:38:33.129Z,80.20
2019-01-27T03:41:01.320Z,80.07
2019-01-27T03:43:29.498Z,80.09
2019-01-27T03:45:57.677Z,79.87
2019-01-27T03:48:25.871Z,79.81
2019-01-27T03:50:54.052Z,79.79
2019-01-27T03:53:22.252Z,79.44
2019-01-27T03:55:50.429Z,79.56
2019-01-27T03:58:18.619Z,79.44
2019-01-27T04:00:46.796Z,79.44
2019-01-27T04:05:50.305Z,79.43
2019-01-27T04:08:18.499Z,79.49
2019-01-27T04:10:46.675Z,79.41
2019-01-27T04:13:14.861Z,79.48
2019-01-27T04:15:43.038Z,79.62
2019-01-27T04:18:11.229Z,79.71
2019-01-27T04:20:39.411Z,79.77
2019-01-27T04:23:07.593Z,80.05
2019-01-27T04:25:35.769Z,80.09
2019-01-27T04:28:03.956Z,80.11
2019-01-27T04:33:21.025Z,80.11
2019-01-27T04:35:49.187Z,80.06
2019-01-27T04:38:17.390Z,80.19
2019-01-27T04:41:05.008Z,80.32
2019-01-27T04:43:33.199Z,80.37
2019-01-27T04:46:01.375Z,80.33
2019-01-27T04:48:29.569Z,80.41
2019-01-27T04:50:57.748Z,80.44
2019-01-27T04:53:25.933Z,80.56
2019-01-27T04:55:54.112Z,80.72
2019-01-27T04:58:22.308Z,80.82
2019-01-27T05:00:50.488Z,80.76
2019-01-27T05:05:53.784Z,80.92
2019-01-27T05:08:21.997Z,81.06
2019-01-27T05:10:50.176Z,81.06
2019-01-27T05:13:18.356Z,80.96
2019-01-27T05:15:46.549Z,81.05
2019-01-27T05:18:14.795Z,81.24
2019-01-27T05:20:42.983Z,81.31
2019-01-27T05:23:11.159Z,81.28
2019-01-27T05:25:39.349Z,81.18
2019-01-27T05:28:07.527Z,81.22
2019-01-27T05:30:35.723Z,81.01
2019-01-27T05:36:17.452Z,81.22
2019-01-27T05:38:45.633Z,81.27
2019-01-27T05:41:13.830Z,81.40
2019-01-27T05:43:41.999Z,81.58
2019-01-27T05:46:10.196Z,81.72
2019-01-27T05:48:38.367Z,81.83
2019-01-27T05:51:06.566Z,81.90
2019-01-27T05:53:34.741Z,81.97
2019-01-27T05:56:02.958Z,81.98
2019-01-27T05:58:31.141Z,82.02
2019-01-27T06:00:59.332Z,81.96
2019-01-27T06:03:27.515Z,81.71
2019-01-27T06:05:55.705Z,81.75
2019-01-27T06:08:23.892Z,81.77
2019-01-27T06:10:52.081Z,81.88
2019-01-27T06:13:20.256Z,81.88
2019-01-27T06:15:48.454Z,81.64
2019-01-27T06:18:16.686Z,81.66
2019-01-27T06:20:44.824Z,81.69
2019-01-27T06:23:13.000Z,81.70
2019-01-27T06:25:41.196Z,81.86
2019-01-27T06:28:09.379Z,81.80
2019-01-27T06:30:37.570Z,81.84
2019-01-27T06:33:24.871Z,81.89
2019-01-27T06:35:53.083Z,81.77
2019-01-27T06:38:21.235Z,81.67
2019-01-27T06:40:49.424Z,81.71
2019-01-27T06:43:17.606Z,81.75
2019-01-27T06:45:45.798Z,81.77
2019-01-27T06:48:13.978Z,81.78
2019-01-27T06:50:42.167Z,81.89
2019-01-27T06:53:10.346Z,81.92
2019-01-27T06:55:38.550Z,81.90
2019-01-27T06:58:06.730Z,81.80
2019-01-27T07:00:54.037Z,81.72
2019-01-27T07:03:41.338Z,81.64
2019-01-27T07:06:28.644Z,81.65
2019-01-27T07:14:40.082Z,81.55
2019-01-27T07:20:06.750Z,81.66
2019-01-27T07:22:54.062Z,81.75
2019-01-27T07:31:05.166Z,81.83
2019-01-27T07:41:37.536Z,81.77
2019-01-27T07:44:24.829Z,81.77
2019-01-27T07:47:12.141Z,81.70
2019-01-27T07:49:59.437Z,81.72
2019-01-27T07:55:25.916Z,81.87
2019-01-27T08:03:27.458Z,81.67
2019-01-27T08:06:14.758Z,81.66
2019-01-27T08:09:02.078Z,81.63
2019-01-27T08:17:13.447Z,81.26
2019-01-27T08:22:39.988Z,81.36
2019-01-27T08:28:28.408Z,81.37
2019-01-27T08:31:15.709Z,81.41
2019-01-27T08:36:38.203Z,81.32
2019-01-27T08:39:46.514Z,81.26
2019-01-27T08:42:33.809Z,81.16
2019-01-27T08:45:21.125Z,81.09
2019-01-27T08:47:49.301Z,81.08
2019-01-27T08:50:17.499Z,80.99
2019-01-27T08:52:45.678Z,80.98
2019-01-27T08:55:53.984Z,80.84
2019-01-27T08:58:22.222Z,80.91
2019-01-27T09:06:33.730Z,80.45
2019-01-27T09:09:21.043Z,80.59
2019-01-27T09:12:08.343Z,80.44
2019-01-27T09:14:55.660Z,80.39
2019-01-27T09:17:42.958Z,80.12
2019-01-27T09:26:06.121Z,80.08
2019-01-27T09:28:53.414Z,80.07
2019-01-27T09:34:16.135Z,80.13
2019-01-27T09:39:52.314Z,79.82
2019-01-27T09:42:39.610Z,79.60
2019-01-27T09:48:27.466Z,79.29
2019-01-27T09:51:14.769Z,78.95
2019-01-27T09:54:02.066Z,79.31
2019-01-27T10:04:39.424Z,79.15
2019-01-27T10:07:26.742Z,79.00
2019-01-27T10:10:14.097Z,78.89
2019-01-27T10:13:01.395Z,78.93
2019-01-27T10:15:48.707Z,78.79
2019-01-27T10:21:24.877Z,78.58
2019-01-27T10:24:12.168Z,78.66
2019-01-27T10:29:34.885Z,78.33
2019-01-27T10:32:22.197Z,77.91
2019-01-27T10:35:09.502Z,78.02
2019-01-27T10:37:56.810Z,77.92
2019-01-27T10:40:44.112Z,77.55
2019-01-27T10:43:31.423Z,77.94
2019-01-27T10:49:07.596Z,77.88
2019-01-27T10:51:54.918Z,77.87
2019-01-27T10:57:31.090Z,78.54
2019-01-27T11:03:07.264Z,80.60
2019-01-27T11:05:54.563Z,80.98
2019-01-27T11:08:41.869Z,81.57
2019-01-27T11:11:29.167Z,79.89
2019-01-27T11:16:51.592Z,79.80
2019-01-27T11:19:38.936Z,80.75
2019-01-27T11:22:26.479Z,78.89
2019-01-27T11:27:49.031Z,78.48
2019-01-27T11:30:36.325Z,78.68
2019-01-27T11:33:23.643Z,78.36
2019-01-27T11:36:10.938Z,78.46
2019-01-27T11:38:58.250Z,78.55
2019-01-27T11:44:34.425Z,78.67
2019-01-27T11:47:21.722Z,78.88
2019-01-27T11:50:09.034Z,79.01
2019-01-27T11:52:37.281Z,79.18
2019-01-27T11:55:45.582Z,79.47
2019-01-27T11:58:13.799Z,79.47
2019-01-27T12:03:30.856Z,79.90
2019-01-27T12:05:59.037Z,79.80
2019-01-27T12:08:28.073Z,79.51
2019-01-27T12:10:57.119Z,79.85
2019-01-27T12:13:25.299Z,79.76
2019-01-27T12:15:53.489Z,79.89
2019-01-27T12:18:21.666Z,79.92
2019-01-27T12:20:56.631Z,80.00
2019-01-27T12:23:24.811Z,79.69
2019-01-27T12:25:53.004Z,79.79
2019-01-27T12:28:21.182Z,79.66
2019-01-27T12:30:49.371Z,79.77
2019-01-27T12:33:17.560Z,79.89
2019-01-27T12:35:45.746Z,79.97
2019-01-27T12:38:13.926Z,79.69
2019-01-27T12:40:42.114Z,79.69
2019-01-27T12:43:10.293Z,79.73
2019-01-27T12:45:38.488Z,79.50
2019-01-27T12:48:06.665Z,79.51
2019-01-27T12:50:34.857Z,79.60
2019-01-27T12:53:03.052Z,79.63
2019-01-27T12:55:31.234Z,79.48
2019-01-27T12:57:59.409Z,79.19
2019-01-27T13:01:07.778Z,79.16
2019-01-27T13:03:36.026Z,79.15
2019-01-27T13:08:58.946Z,78.81
2019-01-27T13:11:27.138Z,78.78
2019-01-27T13:13:55.323Z,78.97
2019-01-27T13:16:23.515Z,79.12
2019-01-27T13:18:51.695Z,79.05
2019-01-27T13:21:19.888Z,78.90
2019-01-27T13:23:48.070Z,79.10
2019-01-27T13:26:16.267Z,78.82
2019-01-27T13:28:44.445Z,78.96
2019-01-27T13:31:12.637Z,78.61
2019-01-27T13:33:40.812Z,78.62
2019-01-27T13:36:09.009Z,78.68
2019-01-27T13:38:37.183Z,78.66
2019-01-27T13:41:05.379Z,78.55
2019-01-27T13:43:33.555Z,78.63
2019-01-27T13:46:01.786Z,78.48
2019-01-27T13:48:29.962Z,78.46
2019-01-27T13:50:58.142Z,78.75
2019-01-27T13:53:26.334Z,78.53
2019-01-27T13:55:54.513Z,78.38
2019-01-27T13:58:22.706Z,78.41
2019-01-27T14:00:50.885Z,78.38
2019-01-27T14:03:19.086Z,78.31
2019-01-27T14:05:47.264Z,78.46
2019-01-27T14:08:15.453Z,78.24
2019-01-27T14:10:43.634Z,78.31
2019-01-27T14:13:11.843Z,78.28
2019-01-27T14:16:20.138Z,78.19
2019-01-27T14:18:48.319Z,78.24
2019-01-27T14:21:16.849Z,78.17
2019-01-27T14:23:46.429Z,78.29
2019-01-27T14:26:14.607Z,78.16
2019-01-27T14:28:42.808Z,78.09
2019-01-27T14:31:10.989Z,78.15
2019-01-27T14:33:39.180Z,78.17
2019-01-27T14:36:07.360Z,78.28
2019-01-27T14:38:35.554Z,78.31
2019-01-27T14:41:03.801Z,78.29
2019-01-27T14:43:31.991Z,78.44
2019-01-27T14:46:00.169Z,78.51
2019-01-27T14:48:28.361Z,78.58
2019-01-27T14:50:56.539Z,78.57
2019-01-27T14:53:26.307Z,78.54
2019-01-27T14:55:54.628Z,78.57
2019-01-27T14:58:22.835Z,78.48
2019-01-27T15:00:51.093Z,78.45
2019-01-27T15:03:19.385Z,78.62
2019-01-27T15:05:47.575Z,78.60
2019-01-27T15:08:15.765Z,78.76
2019-01-27T15:10:43.943Z,78.71
2019-01-27T15:13:12.141Z,78.68
2019-01-27T15:15:40.309Z,78.84
2019-01-27T15:18:08.508Z,78.84
2019-01-27T15:20:56.593Z,78.74
2019-01-27T15:23:24.786Z,78.73
2019-01-27T15:25:52.966Z,78.68
2019-01-27T15:28:21.165Z,78.76
2019-01-27T15:30:49.350Z,78.77
2019-01-27T15:33:17.539Z,78.97
2019-01-27T15:35:45.716Z,79.20
2019-01-27T15:38:13.907Z,79.17
2019-01-27T15:40:42.091Z,79.20
2019-01-27T15:43:10.297Z,79.15
2019-01-27T15:45:38.480Z,79.11
2019-01-27T15:48:06.662Z,79.15
2019-01-27T15:51:14.972Z,79.08
2019-01-27T15:53:43.157Z,79.06
2019-01-27T15:56:11.332Z,79.04
2019-01-27T15:58:39.544Z,78.92
2019-01-27T16:01:07.729Z,78.92
2019-01-27T16:03:35.907Z,78.91
2019-01-27T16:06:04.098Z,79.00
2019-01-27T16:08:32.288Z,78.93
2019-01-27T16:11:00.461Z,78.73
2019-01-27T16:13:28.641Z,78.83
2019-01-27T16:15:56.832Z,78.84
2019-01-27T16:18:25.013Z,78.87
2019-01-27T16:20:53.206Z,78.92
2019-01-27T16:23:40.511Z,79.00
2019-01-27T16:26:08.720Z,79.03
2019-01-27T16:28:36.947Z,78.95
2019-01-27T16:31:24.272Z,79.13
2019-01-27T16:34:11.563Z,79.12
2019-01-27T16:36:39.798Z,79.15
2019-01-27T16:42:08.703Z,79.06
2019-01-27T16:44:36.898Z,78.94
2019-01-27T16:47:05.117Z,78.95
2019-01-27T16:49:33.298Z,78.98
2019-01-27T16:52:01.490Z,78.97
2019-01-27T16:54:29.700Z,78.89
2019-01-27T16:56:57.890Z,78.83
2019-01-27T16:59:26.079Z,78.84
2019-01-27T17:01:58.958Z,79.01
2019-01-27T17:04:24.167Z,79.03
2019-01-27T17:06:52.359Z,78.98
2019-01-27T17:09:20.538Z,78.98
2019-01-27T17:11:48.736Z,78.98
2019-01-27T17:14:16.911Z,78.87
2019-01-27T17:16:45.093Z,78.94
2019-01-27T17:19:13.277Z,79.19
2019-01-27T17:21:41.464Z,79.27
2019-01-27T17:24:09.651Z,79.40
2019-01-27T17:26:37.846Z,79.48
2019-01-27T17:29:06.030Z,79.52
2019-01-27T17:31:34.224Z,79.58
2019-01-27T17:34:02.526Z,79.57
2019-01-27T17:36:30.860Z,79.59
2019-01-27T17:38:59.218Z,79.62
2019-01-27T17:41:27.760Z,79.61
2019-01-27T17:43:56.237Z,79.76
2019-01-27T17:46:24.502Z,79.78
2019-01-27T17:48:52.695Z,79.87
2019-01-27T17:51:20.920Z,79.92
2019-01-27T17:56:37.986Z,80.10
2019-01-27T18:02:14.196Z,80.11
2019-01-27T18:10:46.453Z,80.24
2019-01-27T18:16:03.514Z,80.39
2019-01-27T18:18:31.727Z,80.50
2019-01-27T18:20:59.907Z,80.60
2019-01-27T18:23:28.083Z,80.60
2019-01-27T18:25:56.291Z,80.71
2019-01-27T18:28:24.476Z,80.66
2019-01-27T18:30:52.634Z,80.59
2019-01-27T18:33:20.861Z,80.52
2019-01-27T18:35:49.098Z,80.42
2019-01-27T18:38:17.301Z,80.34
2019-01-27T18:40:45.510Z,80.45
2019-01-27T18:43:13.678Z,80.37
2019-01-27T18:45:41.938Z,80.28
2019-01-27T18:48:10.132Z,80.30
2019-01-27T18:50:38.298Z,80.27
2019-01-27T18:53:25.606Z,80.12
2019-01-27T18:56:12.907Z,80.32
2019-01-27T18:59:00.217Z,80.28
2019-01-27T19:04:36.390Z,80.06
2019-01-27T19:12:38.299Z,80.04
2019-01-27T19:18:26.534Z,79.94
2019-01-27T19:21:13.834Z,80.20
2019-01-27T19:24:01.154Z,80.14
2019-01-27T19:29:37.334Z,79.98
2019-01-27T19:32:24.634Z,79.96
2019-01-27T19:35:11.945Z,80.02
2019-01-27T19:37:59.386Z,80.21
2019-01-27T19:40:46.617Z,80.30
2019-01-27T19:43:33.922Z,80.41
2019-01-27T19:46:21.232Z,80.39
2019-01-27T19:49:08.583Z,80.49
2019-01-27T19:51:55.882Z,80.64
2019-01-27T19:54:43.239Z,80.68
2019-01-27T19:57:30.538Z,80.56
2019-01-27T20:00:17.856Z,80.52
2019-01-27T20:08:28.949Z,81.04
2019-01-27T20:13:55.308Z,80.66
2019-01-27T20:16:42.609Z,80.57
2019-01-27T20:19:29.922Z,80.59
2019-01-27T20:25:06.114Z,80.54
2019-01-27T20:27:53.414Z,80.55
2019-01-27T20:33:16.053Z,80.53
2019-01-27T20:41:17.614Z,80.55
2019-01-27T20:44:04.909Z,80.48
2019-01-27T20:49:27.144Z,80.02
2019-01-27T20:57:29.108Z,79.73
2019-01-27T21:10:58.928Z,79.27
2019-01-27T21:21:51.851Z,78.55
2019-01-27T21:24:20.041Z,78.96
2019-01-27T21:26:48.230Z,79.14
2019-01-27T21:29:16.415Z,78.67
2019-01-27T21:31:44.607Z,78.65
2019-01-27T21:34:12.784Z,78.58
2019-01-27T21:36:40.981Z,78.66
2019-01-27T21:39:49.273Z,78.41
2019-01-27T21:42:17.464Z,78.23
2019-01-27T21:44:45.650Z,78.27
2019-01-27T21:47:13.835Z,78.22
2019-01-27T21:49:42.017Z,78.06
2019-01-27T21:52:10.213Z,78.03
2019-01-27T21:54:38.389Z,78.04
2019-01-27T21:57:06.582Z,78.02
2019-01-27T21:59:34.758Z,78.09
2019-01-27T22:02:02.953Z,77.95
2019-01-27T22:04:31.134Z,77.78
2019-01-27T22:06:59.333Z,77.47
2019-01-27T22:09:27.509Z,77.64
2019-01-27T22:11:55.733Z,85.53
2019-01-27T22:14:23.913Z,86.57
2019-01-27T22:16:52.087Z,83.07
2019-01-27T22:19:20.288Z,80.03
2019-01-27T22:21:48.468Z,77.67
2019-01-27T22:24:16.660Z,77.75
2019-01-27T22:26:44.834Z,77.33
2019-01-27T22:29:13.026Z,77.37
2019-01-27T22:31:41.206Z,77.29
2019-01-27T22:34:09.395Z,77.07
2019-01-27T22:36:37.579Z,76.74
2019-01-27T22:39:45.882Z,76.77
2019-01-27T22:42:14.063Z,76.93
2019-01-27T22:44:42.249Z,76.98
2019-01-27T22:47:10.430Z,77.28
2019-01-27T22:49:38.624Z,77.10
2019-01-27T22:52:06.808Z,77.14
2019-01-27T22:54:34.995Z,77.09
2019-01-27T22:57:03.171Z,77.26
2019-01-27T22:59:31.366Z,77.36
2019-01-27T23:01:59.539Z,77.37
2019-01-27T23:04:27.729Z,77.46
2019-01-27T23:06:55.909Z,77.43
2019-01-27T23:09:24.096Z,77.19
2019-01-27T23:11:52.282Z,77.31
2019-01-27T23:14:20.473Z,77.22
2019-01-27T23:16:48.649Z,77.45
2019-01-27T23:19:16.840Z,77.51
2019-01-27T23:21:45.016Z,77.44
2019-01-27T23:24:13.203Z,77.41
2019-01-27T23:26:41.380Z,77.38
2019-01-27T23:29:09.575Z,77.22
2019-01-27T23:31:37.751Z,77.22
2019-01-27T23:34:05.943Z,77.23
2019-01-27T23:36:34.128Z,77.27
2019-01-27T23:39:02.418Z,77.26
2019-01-27T23:41:30.602Z,77.17
2019-01-27T23:43:58.779Z,77.21
2019-01-27T23:46:26.965Z,77.01
2019-01-27T23:48:55.149Z,77.08
2019-01-27T23:51:23.345Z,76.85
2019-01-27T23:53:51.524Z,76.86
2019-01-27T23:56:19.711Z,76.95
2019-01-27T23:58:47.889Z,76.95
